createdAt,value
2018-09-26T00:00:25.449Z,99.90
2018-09-26T00:02:56.089Z,99.90
2018-09-26T00:05:23.141Z,99.90
2018-09-26T00:07:50.141Z,99.90
2018-09-26T00:10:17.288Z,99.90
2018-09-26T00:12:44.303Z,99.90
2018-09-26T00:15:11.398Z,99.90
2018-09-26T00:17:38.461Z,99.90
2018-09-26T00:20:06.013Z,99.90
2018-09-26T00:22:33.030Z,99.90
2018-09-26T00:25:00.155Z,99.90
2018-09-26T00:27:27.246Z,99.90
2018-09-26T00:29:54.349Z,99.90
2018-09-26T00:32:21.386Z,99.90
2018-09-26T00:34:48.394Z,99.90
2018-09-26T00:37:15.433Z,99.90
2018-09-26T00:39:42.526Z,99.90
2018-09-26T00:42:09.893Z,99.90
2018-09-26T00:44:36.904Z,99.90
2018-09-26T00:47:04.142Z,99.90
2018-09-26T00:49:31.255Z,99.90
2018-09-26T00:51:58.355Z,99.90
2018-09-26T00:54:25.474Z,99.90
2018-09-26T00:56:52.557Z,99.90
2018-09-26T00:59:19.633Z,99.90
2018-09-26T01:01:46.617Z,99.90
2018-09-26T01:04:13.645Z,99.90
2018-09-26T01:06:40.674Z,99.90
2018-09-26T01:09:08.507Z,99.90
2018-09-26T01:11:35.514Z,99.90
2018-09-26T01:14:02.597Z,99.90
2018-09-26T01:16:29.637Z,99.90
2018-09-26T01:18:56.695Z,99.90
2018-09-26T01:21:23.809Z,99.90
2018-09-26T01:23:50.862Z,99.90
2018-09-26T01:26:17.979Z,99.90
2018-09-26T01:28:45.044Z,99.90
2018-09-26T01:31:12.142Z,99.90
2018-09-26T01:33:39.206Z,99.90
2018-09-26T01:36:07.277Z,99.90
2018-09-26T01:38:34.330Z,99.90
2018-09-26T01:41:01.387Z,99.90
2018-09-26T01:43:28.486Z,99.90
2018-09-26T01:45:55.554Z,99.90
2018-09-26T01:48:22.637Z,99.90
2018-09-26T01:50:49.650Z,99.90
2018-09-26T01:53:16.681Z,99.90
2018-09-26T01:55:43.778Z,99.90
2018-09-26T01:58:10.797Z,99.90
2018-09-26T02:00:37.833Z,99.90
2018-09-26T02:03:04.897Z,99.90
2018-09-26T02:05:31.999Z,99.90
2018-09-26T02:07:59.070Z,99.90
2018-09-26T02:10:29.618Z,99.90
2018-09-26T02:12:56.690Z,99.90
2018-09-26T02:15:23.702Z,99.90
2018-09-26T02:17:50.726Z,99.90
2018-09-26T02:20:17.757Z,99.90
2018-09-26T02:22:44.809Z,99.90
2018-09-26T02:25:11.866Z,99.90
2018-09-26T02:27:38.908Z,99.90
2018-09-26T02:30:06.030Z,99.90
2018-09-26T02:47:59.646Z,99.90
2018-09-26T02:50:26.645Z,99.90
2018-09-26T02:52:53.735Z,99.90
2018-09-26T02:55:20.810Z,99.90
2018-09-26T02:57:47.858Z,99.90
2018-09-26T03:00:14.876Z,99.90
2018-09-26T03:02:41.977Z,99.90
2018-09-26T03:05:09.098Z,99.90
2018-09-26T03:07:36.114Z,99.90
2018-09-26T03:10:03.238Z,99.90
2018-09-26T03:12:30.278Z,99.90
2018-09-26T03:14:57.357Z,99.90
2018-09-26T03:17:24.419Z,99.90
2018-09-26T03:19:51.523Z,99.90
2018-09-26T03:22:18.572Z,99.90
2018-09-26T03:24:45.647Z,99.90
2018-09-26T03:27:12.776Z,99.90
2018-09-26T03:29:39.845Z,99.90
2018-09-26T03:32:06.926Z,99.90
2018-09-26T03:34:34.010Z,99.90
2018-09-26T03:37:01.062Z,99.90
2018-09-26T03:39:28.092Z,99.90
2018-09-26T03:41:55.131Z,99.90
2018-09-26T03:44:22.221Z,99.90
2018-09-26T03:46:49.226Z,99.90
2018-09-26T03:49:16.267Z,99.90
2018-09-26T03:51:43.387Z,99.90
2018-09-26T03:54:11.462Z,99.90
2018-09-26T03:56:38.518Z,99.90
2018-09-26T03:59:05.554Z,99.90
2018-09-26T04:01:32.656Z,99.90
2018-09-26T04:04:03.269Z,99.90
2018-09-26T04:06:30.336Z,99.90
2018-09-26T04:08:57.436Z,99.90
2018-09-26T04:11:24.579Z,99.90
2018-09-26T04:13:51.601Z,99.90
2018-09-26T04:16:18.669Z,99.90
2018-09-26T04:18:45.730Z,99.90
2018-09-26T04:21:12.752Z,99.90
2018-09-26T04:23:39.779Z,99.90
2018-09-26T04:26:06.906Z,99.90
2018-09-26T04:28:33.925Z,99.90
2018-09-26T04:31:00.958Z,99.90
2018-09-26T04:33:28.119Z,99.90
2018-09-26T04:35:55.182Z,99.90
2018-09-26T04:38:22.215Z,99.90
2018-09-26T04:40:49.303Z,99.90
2018-09-26T04:43:16.427Z,99.90
2018-09-26T04:45:43.482Z,99.90
2018-09-26T04:48:10.522Z,99.90
2018-09-26T04:50:37.552Z,99.90
2018-09-26T04:53:04.692Z,99.90
2018-09-26T04:55:31.728Z,99.90
2018-09-26T04:57:58.799Z,99.90
2018-09-26T05:00:25.865Z,99.90
2018-09-26T05:02:52.993Z,99.90
2018-09-26T05:05:20.079Z,99.90
2018-09-26T05:07:47.126Z,99.90
2018-09-26T05:10:14.325Z,99.90
2018-09-26T05:12:41.345Z,99.90
2018-09-26T05:15:08.420Z,99.90
2018-09-26T05:17:35.458Z,99.90
2018-09-26T05:20:02.690Z,99.90
2018-09-26T05:22:29.730Z,99.90
2018-09-26T05:24:56.779Z,99.90
2018-09-26T05:27:23.841Z,99.90
2018-09-26T05:29:50.934Z,99.90
2018-09-26T05:32:18.038Z,99.90
2018-09-26T05:34:45.118Z,99.90
2018-09-26T05:37:12.596Z,99.90
2018-09-26T05:39:39.978Z,99.90
2018-09-26T05:42:07.050Z,99.90
2018-09-26T05:44:34.106Z,99.90
2018-09-26T05:47:01.313Z,99.90
2018-09-26T05:49:28.448Z,99.90
2018-09-26T05:51:55.532Z,99.90
2018-09-26T05:54:22.633Z,99.90
2018-09-26T05:56:49.699Z,99.90
2018-09-26T05:59:16.706Z,99.90
2018-09-26T06:01:43.799Z,99.90
2018-09-26T06:04:10.846Z,99.90
2018-09-26T06:06:37.968Z,99.90
2018-09-26T06:09:07.952Z,99.90
2018-09-26T06:11:35.033Z,99.90
2018-09-26T06:14:02.129Z,99.90
2018-09-26T06:18:56.240Z,99.90
2018-09-26T06:21:23.330Z,99.90
2018-09-26T06:23:50.412Z,99.90
2018-09-26T06:26:17.471Z,99.90
2018-09-26T06:28:44.530Z,99.90
2018-09-26T06:31:11.582Z,99.90
2018-09-26T06:33:38.666Z,99.90
2018-09-26T07:22:44.445Z,99.90
2018-09-26T07:25:11.522Z,99.90
2018-09-26T07:27:38.563Z,99.90
2018-09-26T07:30:05.723Z,99.90
2018-09-26T07:32:32.673Z,99.90
2018-09-26T07:34:59.703Z,99.90
2018-09-26T07:37:26.761Z,99.90
2018-09-26T09:22:54.826Z,99.90
2018-09-26T09:25:21.918Z,99.90
2018-09-26T09:27:48.982Z,99.90
2018-09-26T09:30:19.550Z,99.90
2018-09-26T09:32:46.680Z,99.90
2018-09-26T09:35:13.739Z,99.90
2018-09-26T09:37:40.778Z,99.90
2018-09-26T09:40:07.880Z,99.90
2018-09-26T09:42:34.932Z,99.90
2018-09-26T09:45:02.045Z,99.90
2018-09-26T09:47:29.130Z,99.90
2018-09-26T09:49:56.195Z,99.90
2018-09-26T09:52:23.246Z,99.90
2018-09-26T09:54:53.259Z,99.90
2018-09-26T09:57:20.320Z,99.90
2018-09-26T09:59:47.400Z,99.90
2018-09-26T10:02:14.492Z,99.90
2018-09-26T10:04:41.582Z,99.90
2018-09-26T10:07:08.646Z,99.90
2018-09-26T10:09:35.598Z,99.90
2018-09-26T10:12:02.657Z,99.90
2018-09-26T10:14:29.767Z,99.90
2018-09-26T10:16:56.765Z,99.90
2018-09-26T10:19:23.913Z,99.90
2018-09-26T10:21:51.006Z,99.90
2018-09-26T10:24:18.119Z,99.90
2018-09-26T10:26:45.237Z,99.90
2018-09-26T10:29:12.347Z,99.90
2018-09-26T10:31:39.378Z,99.90
2018-09-26T10:34:06.578Z,99.90
2018-09-26T10:36:33.910Z,99.90
2018-09-26T10:39:00.982Z,99.90
2018-09-26T10:41:29.022Z,99.90
2018-09-26T10:43:56.085Z,99.90
2018-09-26T10:46:23.122Z,99.90
2018-09-26T10:48:50.219Z,99.90
2018-09-26T10:51:17.321Z,99.90
2018-09-26T10:53:44.401Z,99.90
2018-09-26T10:56:11.589Z,99.90
2018-09-26T10:58:38.598Z,99.90
2018-09-26T11:01:06.030Z,99.90
2018-09-26T11:03:33.059Z,99.90
2018-09-26T11:06:00.138Z,98.90
2018-09-26T11:08:27.252Z,99.90
2018-09-26T11:10:55.391Z,99.90
2018-09-26T11:13:22.431Z,99.90
2018-09-26T11:15:49.474Z,99.30
2018-09-26T11:18:16.550Z,99.40
2018-09-26T11:20:43.694Z,98.60
2018-09-26T11:23:10.838Z,99.90
2018-09-26T11:25:37.891Z,98.00
2018-09-26T11:28:05.079Z,99.90
2018-09-26T11:30:32.020Z,98.80
2018-09-26T11:32:59.154Z,97.40
2018-09-26T11:35:26.278Z,97.00
2018-09-26T11:37:53.350Z,99.90
2018-09-26T11:40:20.353Z,99.90
2018-09-26T11:42:47.406Z,99.30
2018-09-26T11:45:14.444Z,99.90
2018-09-26T11:47:41.510Z,99.10
2018-09-26T11:50:08.663Z,99.90
2018-09-26T11:52:35.782Z,97.90
2018-09-26T11:55:02.854Z,99.10
2018-09-26T11:57:30.374Z,99.90
2018-09-26T11:59:57.425Z,96.50
2018-09-26T12:02:24.542Z,98.60
2018-09-26T12:04:51.526Z,99.90
2018-09-26T12:07:18.569Z,99.90
2018-09-26T12:09:45.582Z,99.10
2018-09-26T12:12:12.748Z,99.90
2018-09-26T12:14:40.046Z,96.00
2018-09-26T12:17:07.094Z,99.90
2018-09-26T12:19:34.225Z,98.50
2018-09-26T12:22:01.310Z,98.10
2018-09-26T12:24:28.331Z,98.50
2018-09-26T12:26:55.391Z,95.10
2018-09-26T12:29:22.424Z,95.60
2018-09-26T12:31:49.450Z,94.90
2018-09-26T12:34:16.675Z,94.50
2018-09-26T12:36:43.686Z,98.70
2018-09-26T12:39:11.073Z,96.10
2018-09-26T12:41:38.253Z,95.90
2018-09-26T12:44:05.360Z,99.00
2018-09-26T12:46:32.451Z,98.10
2018-09-26T12:48:59.506Z,99.90
2018-09-26T12:51:26.639Z,95.30
2018-09-26T12:53:53.896Z,98.60
2018-09-26T12:56:20.739Z,99.90
2018-09-26T12:58:47.770Z,99.90
2018-09-26T13:01:14.894Z,95.40
2018-09-26T13:03:42.076Z,96.80
2018-09-26T13:06:09.129Z,96.50
2018-09-26T13:08:36.154Z,93.20
2018-09-26T13:11:03.162Z,95.30
2018-09-26T13:13:30.262Z,96.20
2018-09-26T13:15:57.474Z,99.00
2018-09-26T13:18:24.550Z,99.90
2018-09-26T13:20:51.696Z,97.80
2018-09-26T13:23:22.102Z,90.20
2018-09-26T13:25:49.170Z,92.30
2018-09-26T13:28:16.306Z,98.80
2018-09-26T13:30:43.333Z,99.00
2018-09-26T13:33:10.434Z,94.20
2018-09-26T13:35:37.478Z,97.70
2018-09-26T13:38:04.547Z,97.40
2018-09-26T13:40:31.617Z,99.80
2018-09-26T13:42:58.651Z,97.80
2018-09-26T13:45:25.647Z,96.20
2018-09-26T13:47:52.830Z,98.90
2018-09-26T13:50:20.010Z,99.80
2018-09-26T13:52:46.970Z,97.80
2018-09-26T13:56:17.322Z,96.20
2018-09-26T13:58:44.283Z,96.80
2018-09-26T14:01:14.493Z,92.90
2018-09-26T14:03:41.791Z,91.30
2018-09-26T14:06:08.869Z,91.50
2018-09-26T14:08:36.004Z,94.50
2018-09-26T14:11:02.920Z,96.50
2018-09-26T14:13:29.977Z,99.90
2018-09-26T14:15:57.021Z,97.30
2018-09-26T14:18:24.193Z,99.20
2018-09-26T14:20:54.394Z,99.10
2018-09-26T14:23:21.487Z,96.90
2018-09-26T14:25:48.562Z,95.50
2018-09-26T14:28:15.585Z,98.50
2018-09-26T14:30:42.893Z,99.10
2018-09-26T14:33:09.838Z,98.60
2018-09-26T14:35:36.802Z,97.90
2018-09-26T14:38:03.935Z,99.00
2018-09-26T14:40:31.018Z,99.90
2018-09-26T14:42:58.065Z,99.90
2018-09-26T14:45:25.247Z,96.50
2018-09-26T14:47:52.301Z,95.80
2018-09-26T14:50:19.345Z,92.80
2018-09-26T14:52:46.389Z,97.10
2018-09-26T14:55:13.455Z,96.60
2018-09-26T14:57:40.559Z,97.60
2018-09-26T15:00:07.837Z,92.60
2018-09-26T15:02:34.854Z,95.90
2018-09-26T15:05:02.022Z,97.70
2018-09-26T15:07:32.771Z,99.00
2018-09-26T15:09:59.776Z,94.70
2018-09-26T15:12:27.873Z,96.20
2018-09-26T15:14:54.918Z,98.90
2018-09-26T15:17:21.946Z,98.20
2018-09-26T15:19:48.963Z,93.00
2018-09-26T15:22:16.077Z,92.70
2018-09-26T15:24:43.085Z,93.50
2018-09-26T15:27:10.149Z,91.90
2018-09-26T15:29:37.289Z,92.70
2018-09-26T15:32:04.440Z,98.40
2018-09-26T15:34:31.440Z,99.90
2018-09-26T15:36:58.582Z,94.50
2018-09-26T15:39:25.620Z,92.70
2018-09-26T15:41:52.690Z,96.70
2018-09-26T15:44:19.827Z,98.30
2018-09-26T15:46:46.848Z,99.90
2018-09-26T15:49:13.945Z,97.40
2018-09-26T15:51:41.109Z,93.40
2018-09-26T15:54:08.210Z,94.70
2018-09-26T15:56:35.205Z,98.40
2018-09-26T15:59:02.264Z,95.70
2018-09-26T16:01:29.458Z,95.00
2018-09-26T16:03:56.466Z,99.90
2018-09-26T16:07:26.706Z,99.90
2018-09-26T16:09:53.749Z,99.90
2018-09-26T16:12:20.827Z,99.90
2018-09-26T16:14:47.811Z,99.90
2018-09-26T16:17:14.893Z,99.90
2018-09-26T16:19:41.924Z,99.90
2018-09-26T16:22:09.016Z,99.90
2018-09-26T16:24:36.038Z,99.90
2018-09-26T16:27:03.083Z,99.90
2018-09-26T16:29:30.141Z,99.90
2018-09-26T16:31:57.234Z,99.90
2018-09-26T16:34:24.344Z,99.90
2018-09-26T16:36:51.418Z,99.90
2018-09-26T16:39:18.574Z,99.90
2018-09-26T16:41:45.496Z,99.90
2018-09-26T16:44:12.703Z,99.90
2018-09-26T16:46:39.699Z,99.90
2018-09-26T16:49:06.734Z,99.90
2018-09-26T16:51:33.915Z,99.90
2018-09-26T16:54:01.006Z,99.90
2018-09-26T16:56:28.050Z,99.90
2018-09-26T16:58:55.071Z,99.90
2018-09-26T17:01:22.234Z,99.90
2018-09-26T17:03:49.331Z,99.90
2018-09-26T17:06:16.512Z,99.90
2018-09-26T17:08:46.933Z,99.90
2018-09-26T17:11:14.011Z,99.90
2018-09-26T17:13:41.750Z,99.90
2018-09-26T17:16:08.853Z,99.90
2018-09-26T17:18:35.950Z,99.90
2018-09-26T17:21:03.002Z,99.90
2018-09-26T17:23:30.017Z,99.90
2018-09-26T17:25:57.028Z,99.90
2018-09-26T17:28:24.154Z,99.90
2018-09-26T17:30:51.260Z,99.90
2018-09-26T17:33:18.230Z,99.90
2018-09-26T17:35:45.254Z,99.90
2018-09-26T17:38:12.300Z,99.90
2018-09-26T17:40:39.367Z,99.90
2018-09-26T17:43:07.028Z,99.90
2018-09-26T17:45:34.133Z,99.90
2018-09-26T17:48:01.139Z,99.90
2018-09-26T17:50:28.163Z,99.90
2018-09-26T17:52:55.177Z,99.90
2018-09-26T17:55:22.257Z,99.90
2018-09-26T17:57:49.278Z,99.90
2018-09-26T18:00:16.458Z,99.90
2018-09-26T18:02:43.473Z,99.90
2018-09-26T18:05:10.554Z,99.90
2018-09-26T18:07:37.618Z,99.90
2018-09-26T18:10:04.649Z,99.90
2018-09-26T18:12:32.080Z,99.90
2018-09-26T18:14:59.220Z,99.90
2018-09-26T18:17:26.322Z,99.90
2018-09-26T18:19:53.547Z,99.90
2018-09-26T18:22:20.645Z,99.90
2018-09-26T18:24:47.732Z,99.90
2018-09-26T18:27:14.823Z,99.90
2018-09-26T18:29:42.268Z,99.90
2018-09-26T18:32:09.812Z,99.90
2018-09-26T18:34:37.213Z,99.90
2018-09-26T18:37:04.645Z,99.90
2018-09-26T18:39:32.255Z,99.90
2018-09-26T18:42:00.844Z,99.90
2018-09-26T18:44:29.711Z,99.90
2018-09-26T18:46:58.671Z,99.90
2018-09-26T18:49:27.342Z,99.90
2018-09-26T18:51:56.317Z,99.90
2018-09-26T18:54:25.267Z,99.90
2018-09-26T18:56:54.292Z,99.90
2018-09-26T18:59:23.361Z,99.90
2018-09-26T19:01:52.273Z,99.90
2018-09-26T19:04:21.276Z,99.90
2018-09-26T19:06:50.280Z,99.90
2018-09-26T19:09:19.157Z,99.90
2018-09-26T19:11:49.136Z,99.90
2018-09-26T19:14:18.064Z,99.90
2018-09-26T19:16:47.031Z,99.90
2018-09-26T19:19:15.969Z,99.90
2018-09-26T19:21:44.925Z,99.90
2018-09-26T19:24:13.987Z,99.90
2018-09-26T19:26:42.891Z,99.90
2018-09-26T19:29:12.193Z,99.90
2018-09-26T19:31:41.157Z,99.90
2018-09-26T19:34:10.292Z,99.90
2018-09-26T19:36:39.332Z,99.90
2018-09-26T19:39:09.675Z,99.90
2018-09-26T19:41:38.993Z,99.90
2018-09-26T19:44:08.201Z,99.90
2018-09-26T19:46:37.256Z,99.90
2018-09-26T19:49:06.397Z,99.90
2018-09-26T19:51:35.295Z,99.90
2018-09-26T19:54:04.325Z,99.90
2018-09-26T19:56:33.251Z,99.90
2018-09-26T19:59:02.084Z,99.90
2018-09-26T20:01:31.153Z,99.90
2018-09-26T20:03:59.979Z,99.90
2018-09-26T20:06:28.866Z,99.90
2018-09-26T20:08:57.908Z,99.90
2018-09-26T20:11:26.584Z,99.90
2018-09-26T20:13:55.138Z,99.90
2018-09-26T20:16:23.579Z,99.90
2018-09-26T20:18:53.285Z,99.90
2018-09-26T20:21:20.482Z,99.90
2018-09-26T20:23:47.731Z,99.90
2018-09-26T20:26:14.867Z,99.90
2018-09-26T20:28:41.927Z,99.90
2018-09-26T20:31:09.065Z,99.90
2018-09-26T20:33:36.084Z,99.90
2018-09-26T20:36:03.447Z,99.90
2018-09-26T20:38:30.542Z,99.90
2018-09-26T20:41:01.408Z,99.90
2018-09-26T20:43:28.515Z,99.90
2018-09-26T20:45:55.618Z,99.90
2018-09-26T20:48:22.637Z,99.90
2018-09-26T20:50:49.718Z,99.90
2018-09-26T20:53:16.788Z,99.90
2018-09-26T20:55:43.823Z,99.90
2018-09-26T20:58:10.939Z,99.90
2018-09-26T21:00:41.568Z,99.90
2018-09-26T21:03:08.557Z,99.90
2018-09-26T21:05:35.618Z,99.90
2018-09-26T21:08:02.704Z,99.90
2018-09-26T21:10:29.710Z,99.90
2018-09-26T21:12:56.808Z,99.90
2018-09-26T21:15:23.851Z,99.90
2018-09-26T21:17:50.940Z,99.90
2018-09-26T21:20:17.961Z,99.90
2018-09-26T21:22:45.022Z,99.90
2018-09-26T21:25:12.002Z,99.90
2018-09-26T21:27:39.032Z,99.90
2018-09-26T21:30:06.134Z,99.90
2018-09-26T21:32:33.170Z,99.90
2018-09-26T21:35:00.254Z,99.90
2018-09-26T21:37:27.266Z,99.90
2018-09-26T21:39:54.309Z,99.90
2018-09-26T21:42:21.373Z,99.90
2018-09-26T21:44:48.434Z,99.90
2018-09-26T21:47:15.530Z,99.90
2018-09-26T21:49:42.598Z,99.90
2018-09-26T21:52:09.649Z,99.90
2018-09-26T21:54:36.718Z,99.90
2018-09-26T21:57:03.774Z,99.90
2018-09-26T21:59:31.658Z,99.90
2018-09-26T22:01:58.749Z,99.90
2018-09-26T22:04:25.829Z,99.90
2018-09-26T22:06:52.933Z,99.90
2018-09-26T22:09:20.002Z,99.90
2018-09-26T22:11:47.014Z,99.90
2018-09-26T22:14:14.101Z,99.90
2018-09-26T22:16:41.214Z,99.90
2018-09-26T22:19:08.322Z,99.90
2018-09-26T22:21:35.363Z,99.90
2018-09-26T22:24:02.417Z,99.90
2018-09-26T22:26:29.477Z,99.90
2018-09-26T22:28:56.542Z,99.90
2018-09-26T22:31:23.790Z,99.90
2018-09-26T22:33:50.793Z,99.90
2018-09-26T22:36:17.909Z,99.90
2018-09-26T22:38:45.108Z,99.90
2018-09-26T22:41:12.182Z,99.90
2018-09-26T22:43:39.286Z,99.90
2018-09-26T22:46:06.385Z,99.90
2018-09-26T22:48:33.446Z,99.90
2018-09-26T22:51:00.506Z,99.90
2018-09-26T22:53:27.611Z,99.90
2018-09-26T22:55:54.662Z,99.90
2018-09-26T22:58:21.690Z,99.90
2018-09-26T23:00:48.754Z,99.90
2018-09-26T23:03:15.797Z,99.90
2018-09-26T23:05:42.858Z,99.90
2018-09-26T23:08:09.980Z,99.90
2018-09-26T23:10:37.017Z,99.90
2018-09-26T23:13:04.077Z,99.90
2018-09-26T23:15:31.118Z,99.90
2018-09-26T23:17:58.174Z,99.90
2018-09-26T23:20:25.257Z,99.90
2018-09-26T23:22:52.301Z,99.90
2018-09-26T23:25:19.374Z,99.90
2018-09-26T23:27:46.462Z,99.90
2018-09-26T23:30:13.829Z,99.90
2018-09-26T23:32:41.882Z,99.90
2018-09-26T23:35:08.994Z,99.90
2018-09-26T23:37:36.026Z,99.90
2018-09-26T23:40:03.131Z,99.90
2018-09-26T23:42:30.253Z,99.90
2018-09-26T23:44:57.313Z,99.90
2018-09-26T23:47:24.374Z,99.90
2018-09-26T23:49:51.483Z,99.90
2018-09-26T23:52:18.534Z,99.90
2018-09-26T23:54:45.593Z,99.90
2018-09-26T23:57:12.678Z,99.90
2018-09-26T23:59:39.745Z,99.90
